Time;durP1;ratioP1;P1;durP2;ratioP2;P2;SDS_P1;SDS_P2;PMS_P1;PMS_P2;Temp;Humidity;BMP_temperature;BMP_pressure;BME280_temperature;BME280_humidity;BME280_pressure;Samples;Min_cycle;Max_cycle;Signal;HPM_P1;HPM_P2
2020/12/16 00:00:08;;;;;;;;;;;;;;;;;;;;;
2020/12/16 00:02:37;;;;;;;15.85;7.13;;;7.30;99.90;;;;;;5026708;28;20033;-80
2020/12/16 00:05:03;;;;;;;20.13;6.88;;;7.40;99.90;;;;;;5032212;28;20282;-81
2020/12/16 00:07:31;;;;;;;30.83;8.20;;;7.40;99.90;;;;;;5012028;28;20376;-80
2020/12/16 00:09:57;;;;;;;19.10;6.72;;;7.30;99.90;;;;;;5027596;28;20031;-80
2020/12/16 00:12:23;;;;;;;13.70;6.65;;;7.30;99.90;;;;;;5032691;28;20032;-80
2020/12/16 00:14:49;;;;;;;15.23;6.43;;;7.40;99.90;;;;;;5035059;28;20582;-80
2020/12/16 00:17:14;;;;;;;16.25;6.45;;;7.40;99.90;;;;;;5032278;28;20041;-80
2020/12/16 00:19:43;;;;;;;21.05;7.00;;;7.40;99.90;;;;;;5031978;28;20032;-81
2020/12/16 00:22:09;;;;;;;9.95;5.60;;;7.30;99.90;;;;;;5018978;28;20028;-81
2020/12/16 00:24:34;;;;;;;9.70;5.50;;;7.30;99.90;;;;;;5032943;28;20095;-81
2020/12/16 00:27:00;;;;;;;10.05;5.70;;;7.30;99.90;;;;;;5027902;28;20037;-81
2020/12/16 00:29:26;;;;;;;15.52;5.35;;;7.20;99.90;;;;;;5030271;28;20510;-81
2020/12/16 00:31:54;;;;;;;13.75;5.22;;;7.20;99.90;;;;;;5031733;28;20029;-80
2020/12/16 00:34:24;;;;;;;9.75;4.75;;;7.10;99.90;;;;;;5065112;28;20040;-80
2020/12/16 00:36:50;;;;;;;6.78;4.50;;;7.10;99.90;;;;;;5029797;28;20028;-80
2020/12/16 00:39:20;;;;;;;10.52;4.60;;;7.10;99.90;;;;;;5028121;28;20037;-80
2020/12/16 00:41:45;;;;;;;15.57;4.78;;;7.10;99.90;;;;;;5030880;28;21871;-80
2020/12/16 00:44:11;;;;;;;25.50;5.72;;;7.00;99.90;;;;;;5031134;28;20025;-81
2020/12/16 00:46:39;;;;;;;14.02;4.90;;;7.00;99.90;;;;;;5033893;28;20101;-80
2020/12/16 00:49:07;;;;;;;12.40;5.00;;;7.00;99.90;;;;;;5028205;28;20026;-81
2020/12/16 00:51:33;;;;;;;13.13;4.68;;;7.00;99.90;;;;;;5046539;28;20060;-80
2020/12/16 00:54:06;;;;;;;7.97;4.13;;;7.00;99.90;;;;;;5031726;28;20033;-80
2020/12/16 00:56:31;;;;;;;11.23;4.55;;;7.00;99.90;;;;;;5028759;28;20097;-80
2020/12/16 00:58:57;;;;;;;22.00;6.18;;;7.00;99.90;;;;;;5033606;28;20112;-80
2020/12/16 01:01:28;;;;;;;15.90;5.30;;;6.90;99.90;;;;;;5030276;28;20109;-81
2020/12/16 01:03:56;;;;;;;21.40;5.35;;;6.90;99.90;;;;;;5033755;28;20429;-81
2020/12/16 01:06:22;;;;;;;30.00;5.75;;;6.90;99.90;;;;;;5027253;28;20017;-80
2020/12/16 01:08:52;;;;;;;21.50;4.80;;;6.90;99.90;;;;;;5029918;28;20030;-81
2020/12/16 01:11:22;;;;;;;10.40;4.60;;;6.80;99.90;;;;;;5030660;28;20055;-81
2020/12/16 01:13:48;;;;;;;15.52;4.68;;;6.80;99.90;;;;;;5033767;28;20432;-80
2020/12/16 01:16:13;;;;;;;9.32;4.53;;;6.80;99.90;;;;;;5032135;28;20128;-80
2020/12/16 01:18:39;;;;;;;27.75;5.75;;;6.80;99.90;;;;;;5033517;28;20470;-80
2020/12/16 01:21:07;;;;;;;27.65;5.40;;;6.80;99.90;;;;;;5033998;28;20114;-80
2020/12/16 01:23:34;;;;;;;27.42;5.25;;;6.80;99.90;;;;;;5016947;28;20038;-81
2020/12/16 01:26:03;;;;;;;23.23;4.82;;;6.80;99.90;;;;;;5017610;28;20103;-80
2020/12/16 01:28:28;;;;;;;17.00;4.88;;;6.70;99.90;;;;;;5017319;28;20048;-80
2020/12/16 01:30:54;;;;;;;16.20;4.50;;;6.70;99.90;;;;;;5035035;28;20394;-80
2020/12/16 01:33:21;;;;;;;16.52;4.35;;;6.70;99.90;;;;;;5037310;28;20030;-80
2020/12/16 01:35:52;;;;;;;7.38;4.13;;;6.70;99.90;;;;;;5015213;28;20098;-80
2020/12/16 01:38:18;;;;;;;19.70;4.82;;;6.70;99.90;;;;;;5016804;28;20050;-80
2020/12/16 01:40:46;;;;;;;22.98;4.85;;;6.80;99.90;;;;;;5016644;28;20056;-80
2020/12/16 01:43:14;;;;;;;38.13;5.72;;;6.80;99.90;;;;;;5020734;28;20089;-80
2020/12/16 01:45:40;;;;;;;32.15;5.32;;;6.80;99.90;;;;;;5017127;28;20111;-80
2020/12/16 01:48:05;;;;;;;11.23;3.78;;;6.90;99.90;;;;;;5018244;28;20120;-80
2020/12/16 01:50:33;;;;;;;15.50;5.10;;;6.90;99.90;;;;;;5022318;28;20034;-80
2020/12/16 01:52:59;;;;;;;9.98;4.60;;;6.90;99.90;;;;;;5032176;28;20032;-81
2020/12/16 01:55:27;;;;;;;8.60;4.15;;;6.90;99.90;;;;;;5023143;28;20025;-80
2020/12/16 01:57:54;;;;;;;10.70;5.07;;;7.00;99.90;;;;;;5011072;28;20088;-80
2020/12/16 02:00:25;;;;;;;11.23;4.38;;;7.00;99.90;;;;;;5030712;28;20366;-80
2020/12/16 02:02:54;;;;;;;10.07;4.60;;;7.00;99.90;;;;;;5036482;28;20040;-81
2020/12/16 02:05:23;;;;;;;10.35;4.50;;;7.00;99.90;;;;;;5029604;28;20030;-81
2020/12/16 02:07:48;;;;;;;8.05;4.00;;;7.00;99.90;;;;;;5014826;28;20475;-80
2020/12/16 02:10:16;;;;;;;7.53;3.90;;;7.00;99.90;;;;;;5017270;28;20033;-80
2020/12/16 02:12:42;;;;;;;10.10;4.10;;;7.10;99.90;;;;;;5031971;28;20021;-81
2020/12/16 02:15:08;;;;;;;10.75;4.20;;;7.10;99.90;;;;;;5017153;28;20033;-81
2020/12/16 02:17:36;;;;;;;12.45;5.13;;;7.10;99.90;;;;;;5016886;28;20033;-80
2020/12/16 02:20:08;;;;;;;8.27;4.07;;;7.10;99.90;;;;;;5048936;28;20031;-80
2020/12/16 02:22:36;;;;;;;11.23;4.60;;;7.10;99.90;;;;;;5022307;28;20064;-81
2020/12/16 02:25:11;;;;;;;7.63;4.25;;;7.10;99.90;;;;;;5017478;28;20096;-81
2020/12/16 02:27:37;;;;;;;9.27;4.30;;;7.10;99.90;;;;;;5031742;28;20068;-80
2020/12/16 02:30:08;;;;;;;10.38;4.32;;;7.10;99.90;;;;;;5025211;28;20079;-80
2020/12/16 02:32:36;;;;;;;13.32;4.82;;;7.10;99.90;;;;;;5016275;28;20076;-80
2020/12/16 02:35:02;;;;;;;10.35;4.07;;;7.20;99.90;;;;;;5001668;28;20033;-80
2020/12/16 02:37:30;;;;;;;7.88;4.15;;;7.10;99.90;;;;;;5009960;28;20044;-80
2020/12/16 02:40:00;;;;;;;7.20;4.10;;;7.20;99.90;;;;;;5015514;28;20895;-80
2020/12/16 02:42:27;;;;;;;9.55;4.20;;;7.20;99.90;;;;;;5014758;28;20057;-80
2020/12/16 02:44:53;;;;;;;8.60;4.00;;;7.30;99.90;;;;;;5015875;28;20029;-80
2020/12/16 02:47:21;;;;;;;9.52;3.72;;;7.30;99.90;;;;;;5015481;28;20083;-80
2020/12/16 02:49:49;;;;;;;7.90;3.92;;;7.30;99.90;;;;;;5015818;28;20404;-80
2020/12/16 02:52:14;;;;;;;8.85;4.13;;;7.30;99.90;;;;;;5014697;28;20054;-81
2020/12/16 02:54:40;;;;;;;9.10;3.78;;;7.30;99.90;;;;;;5012982;28;20113;-81
2020/12/16 02:57:08;;;;;;;7.63;3.50;;;7.30;99.90;;;;;;5001632;28;20054;-80
2020/12/16 02:59:34;;;;;;;6.65;2.88;;;7.30;99.90;;;;;;5025545;28;20036;-80
2020/12/16 03:02:02;;;;;;;6.55;3.33;;;7.40;99.90;;;;;;4997923;28;20034;-80
2020/12/16 03:04:28;;;;;;;6.80;3.15;;;7.40;99.90;;;;;;5013821;28;20036;-81
2020/12/16 03:06:59;;;;;;;8.02;4.18;;;7.40;99.90;;;;;;5016093;28;20022;-80
2020/12/16 03:09:25;;;;;;;9.02;4.90;;;7.40;99.90;;;;;;5025765;28;20028;-80
2020/12/16 03:11:58;;;;;;;9.00;5.25;;;7.40;99.90;;;;;;5014543;28;20049;-81
2020/12/16 03:14:29;;;;;;;10.93;6.55;;;7.40;99.90;;;;;;5013593;28;20040;-80
2020/12/16 03:16:55;;;;;;;10.98;7.53;;;7.40;99.90;;;;;;5013951;28;20034;-81
2020/12/16 03:19:23;;;;;;;14.05;7.65;;;7.50;99.90;;;;;;5015877;28;20033;-81
2020/12/16 03:21:51;;;;;;;11.30;7.47;;;7.60;99.90;;;;;;5017464;28;20184;-80
2020/12/16 03:24:20;;;;;;;14.73;8.48;;;7.60;99.90;;;;;;5033705;28;20018;-81
2020/12/16 03:26:45;;;;;;;12.75;8.38;;;7.60;99.90;;;;;;5028325;28;20083;-80
2020/12/16 03:29:13;;;;;;;13.23;8.57;;;7.70;99.90;;;;;;5014831;28;20038;-80
2020/12/16 03:31:43;;;;;;;13.82;7.72;;;7.70;99.90;;;;;;5014603;28;20054;-81
2020/12/16 03:34:11;;;;;;;11.10;7.97;;;7.70;99.90;;;;;;5014038;28;20452;-80
2020/12/16 03:36:37;;;;;;;12.25;6.80;;;7.70;99.90;;;;;;5026800;28;20075;-80
2020/12/16 03:39:04;;;;;;;9.10;6.05;;;7.70;99.90;;;;;;4998914;28;20038;-80
2020/12/16 03:41:32;;;;;;;10.50;6.03;;;7.80;99.90;;;;;;5016677;28;20534;-81
2020/12/16 03:44:00;;;;;;;8.63;6.05;;;7.80;99.90;;;;;;5030690;28;20082;-80
2020/12/16 03:46:26;;;;;;;10.75;6.82;;;7.80;99.90;;;;;;5018160;28;20072;-80
2020/12/16 03:48:54;;;;;;;7.63;4.40;;;7.80;99.90;;;;;;5016004;28;20115;-80
2020/12/16 03:51:24;;;;;;;7.45;3.85;;;7.80;99.90;;;;;;5017728;28;20033;-80
2020/12/16 03:53:50;;;;;;;9.45;3.53;;;7.80;99.90;;;;;;5026873;28;20041;-80
2020/12/16 03:56:16;;;;;;;8.05;3.38;;;7.80;99.90;;;;;;5022210;28;20034;-80
2020/12/16 03:58:46;;;;;;;9.00;3.53;;;7.90;99.90;;;;;;5015091;28;20048;-80
2020/12/16 04:01:15;;;;;;;8.18;4.50;;;7.80;99.90;;;;;;5062501;28;20025;-81
2020/12/16 04:03:46;;;;;;;8.90;5.28;;;7.90;99.90;;;;;;5025435;28;20072;-80
2020/12/16 04:06:16;;;;;;;10.50;6.03;;;7.90;99.90;;;;;;5013809;28;20036;-80
2020/12/16 04:08:43;;;;;;;8.85;5.30;;;7.90;99.90;;;;;;5030435;28;20052;-80
2020/12/16 04:11:18;;;;;;;8.50;5.90;;;7.90;99.90;;;;;;5013779;28;20033;-80
2020/12/16 04:13:46;;;;;;;10.32;5.88;;;7.90;99.90;;;;;;5014516;28;20088;-80
2020/12/16 04:16:16;;;;;;;12.73;6.47;;;7.90;99.90;;;;;;5016887;28;20041;-80
2020/12/16 04:18:42;;;;;;;10.60;6.95;;;8.00;99.90;;;;;;5014821;28;20076;-79
2020/12/16 04:21:12;;;;;;;9.32;5.80;;;8.00;99.90;;;;;;5014211;28;20025;-80
2020/12/16 04:23:38;;;;;;;10.73;6.45;;;8.00;99.90;;;;;;5019181;28;20075;-80
2020/12/16 04:26:08;;;;;;;11.13;6.75;;;8.00;99.90;;;;;;5025853;28;20109;-80
2020/12/16 04:28:34;;;;;;;12.60;7.25;;;8.00;99.90;;;;;;5014746;28;20067;-79
2020/12/16 04:31:06;;;;;;;10.77;7.22;;;8.10;99.90;;;;;;5023608;28;20120;-80
2020/12/16 04:33:31;;;;;;;11.88;6.65;;;8.10;99.90;;;;;;5032484;28;20084;-79
2020/12/16 04:35:59;;;;;;;11.05;7.47;;;8.10;99.90;;;;;;5020748;28;20422;-79
2020/12/16 04:38:30;;;;;;;11.48;7.00;;;8.10;99.90;;;;;;5027649;28;20215;-80
2020/12/16 04:40:56;;;;;;;12.30;7.40;;;8.10;99.90;;;;;;5035029;28;20032;-80
2020/12/16 04:43:25;;;;;;;12.07;7.03;;;8.10;99.90;;;;;;5020701;28;20030;-79
2020/12/16 04:45:54;;;;;;;10.82;7.10;;;8.10;99.90;;;;;;5027354;28;20037;-81
2020/12/16 04:48:23;;;;;;;13.75;7.70;;;8.10;99.90;;;;;;5032712;28;20034;-80
2020/12/16 04:50:51;;;;;;;11.93;7.40;;;8.20;99.90;;;;;;5016198;28;20033;-80
2020/12/16 04:53:20;;;;;;;10.82;7.05;;;8.20;99.90;;;;;;5032476;28;20509;-80
2020/12/16 04:55:49;;;;;;;11.77;7.72;;;8.20;99.90;;;;;;5017537;28;20042;-80
2020/12/16 04:58:17;;;;;;;10.82;7.03;;;8.20;99.90;;;;;;5028506;28;20391;-80
2020/12/16 05:00:42;;;;;;;11.85;7.18;;;8.20;99.90;;;;;;5018658;28;20037;-80
2020/12/16 05:03:11;;;;;;;13.00;7.15;;;8.20;99.90;;;;;;5016420;28;20080;-80
2020/12/16 05:05:39;;;;;;;14.73;7.28;;;8.20;99.90;;;;;;5036008;28;20029;-80
2020/12/16 05:08:16;;;;;;;16.48;8.55;;;8.20;99.90;;;;;;5031283;28;20067;-80
2020/12/16 05:10:48;;;;;;;17.55;8.05;;;8.30;99.90;;;;;;5018924;28;20486;-80
2020/12/16 05:13:18;;;;;;;20.40;8.55;;;8.30;99.90;;;;;;5035169;28;20088;-80
2020/12/16 05:15:47;;;;;;;18.42;7.72;;;8.30;99.90;;;;;;5027263;28;20030;-80
2020/12/16 05:18:17;;;;;;;17.48;7.80;;;8.30;99.90;;;;;;5016949;28;20754;-80
2020/12/16 05:20:55;;;;;;;19.65;8.50;;;8.30;99.90;;;;;;5004116;28;20033;-80
2020/12/16 05:23:35;;;;;;;21.23;8.50;;;8.30;99.90;;;;;;5034395;28;20025;-80
2020/12/16 05:26:08;;;;;;;17.85;8.38;;;8.30;99.90;;;;;;5022760;28;20037;-80
2020/12/16 05:28:35;;;;;;;21.83;9.25;;;8.30;99.90;;;;;;5048318;28;20030;-79
2020/12/16 05:31:08;;;;;;;18.90;8.80;;;8.40;99.90;;;;;;5015681;28;21941;-79
2020/12/16 05:33:43;;;;;;;18.88;8.98;;;8.40;99.90;;;;;;5017641;28;21894;-80
2020/12/16 05:36:12;;;;;;;14.60;7.68;;;8.40;99.90;;;;;;5016168;28;20476;-80
2020/12/16 05:39:03;;;;;;;15.25;7.38;;;8.40;99.90;;;;;;5034883;28;20116;-80
2020/12/16 05:41:30;;;;;;;14.55;7.15;;;8.50;99.90;;;;;;5016649;28;20080;-79
2020/12/16 05:44:21;;;;;;;14.50;7.18;;;8.50;99.90;;;;;;5016675;28;20466;-79
2020/12/16 05:46:48;;;;;;;17.33;8.27;;;8.50;99.90;;;;;;5016816;28;20053;-80
2020/12/16 05:49:25;;;;;;;17.27;7.75;;;8.50;99.90;;;;;;5016188;28;20028;-80
2020/12/16 05:52:03;;;;;;;14.77;7.95;;;8.50;99.90;;;;;;5016078;28;20341;-80
2020/12/16 05:54:32;;;;;;;13.18;6.93;;;8.50;99.90;;;;;;5001799;28;20157;-79
2020/12/16 05:57:29;;;;;;;14.07;8.02;;;8.50;99.90;;;;;;5006893;28;20403;-80
2020/12/16 06:00:12;;;;;;;13.20;7.85;;;8.60;99.90;;;;;;5016887;28;20029;-80
2020/12/16 06:02:38;;;;;;;;;;;8.60;99.90;;;;;;5033781;28;20900;-80
2020/12/16 06:05:06;;;;;;;12.55;7.07;;;8.60;99.90;;;;;;5015735;28;19913;-80
2020/12/16 06:07:32;;;;;;;13.50;7.80;;;8.50;99.90;;;;;;5022057;28;20044;-80
2020/12/16 06:10:02;;;;;;;13.70;8.18;;;8.60;99.90;;;;;;5016469;28;20052;-80
2020/12/16 06:12:30;;;;;;;11.85;7.65;;;8.60;99.90;;;;;;5015374;28;20064;-80
2020/12/16 06:15:11;;;;;;;24.33;9.73;;;8.60;99.90;;;;;;4998233;28;20037;-80
2020/12/16 06:17:39;;;;;;;25.13;10.80;;;8.60;99.90;;;;;;5019112;28;20033;-80
2020/12/16 06:20:14;;;;;;;21.27;10.95;;;8.60;99.90;;;;;;5015952;28;20029;-80
2020/12/16 06:22:43;;;;;;;21.60;10.60;;;8.60;99.90;;;;;;5019301;28;20026;-80
2020/12/16 06:25:14;;;;;;;16.45;8.98;;;8.60;99.90;;;;;;5015366;28;20034;-80
2020/12/16 06:27:50;;;;;;;14.88;8.00;;;8.60;99.90;;;;;;5015896;28;20025;-80
2020/12/16 06:30:32;;;;;;;13.57;7.60;;;8.60;99.90;;;;;;5017253;28;20056;-79
2020/12/16 06:33:05;;;;;;;12.65;7.93;;;8.60;99.90;;;;;;5015238;28;20021;-80
2020/12/16 06:35:31;;;;;;;29.38;10.80;;;8.60;99.90;;;;;;5016285;28;20049;-80
2020/12/16 06:38:24;;;;;;;17.95;9.05;;;8.60;99.90;;;;;;5009331;28;20037;-80
2020/12/16 06:40:56;;;;;;;25.48;10.32;;;8.70;99.90;;;;;;5014159;28;20049;-80
2020/12/16 06:43:30;;;;;;;38.43;12.03;;;8.60;99.90;;;;;;5016123;28;20104;-80
2020/12/16 06:45:59;;;;;;;34.72;12.68;;;8.60;99.90;;;;;;5015540;28;20022;-80
2020/12/16 06:48:42;;;;;;;37.03;12.77;;;8.60;99.90;;;;;;5015087;28;20383;-80
2020/12/16 06:51:19;;;;;;;68.53;13.27;;;8.60;99.90;;;;;;5014810;28;20108;-80
2020/12/16 06:53:47;;;;;;;44.17;12.15;;;8.70;99.90;;;;;;5030881;28;20033;-80
2020/12/16 06:56:18;;;;;;;38.28;13.02;;;8.70;99.90;;;;;;5023031;28;20033;-79
2020/12/16 06:58:48;;;;;;;49.38;14.25;;;8.60;99.90;;;;;;5014402;28;20288;-81
2020/12/16 07:01:15;;;;;;;29.85;11.65;;;8.70;99.90;;;;;;5013928;28;20033;-80
2020/12/16 07:03:41;;;;;;;28.02;11.40;;;8.70;99.90;;;;;;5015693;28;20049;-80
2020/12/16 07:06:11;;;;;;;35.13;12.90;;;8.70;99.90;;;;;;5011003;28;20167;-81
2020/12/16 07:08:37;;;;;;;32.47;11.98;;;8.70;99.90;;;;;;5013921;28;20030;-79
2020/12/16 07:11:03;;;;;;;33.05;12.35;;;8.70;99.90;;;;;;5016274;28;20914;-80
2020/12/16 07:13:37;;;;;;;28.25;12.43;;;8.80;99.90;;;;;;5014890;28;20029;-80
2020/12/16 07:16:10;;;;;;;32.42;12.82;;;8.80;99.90;;;;;;5013589;28;20033;-80
2020/12/16 07:18:51;;;;;;;31.42;12.18;;;8.80;99.90;;;;;;5013905;28;20071;-80
2020/12/16 07:21:20;;;;;;;27.02;11.40;;;8.80;99.90;;;;;;5022066;28;20525;-80
2020/12/16 07:23:55;;;;;;;27.45;13.10;;;8.80;99.90;;;;;;5017223;28;20087;-80
2020/12/16 07:26:33;;;;;;;25.52;11.88;;;8.80;99.90;;;;;;5029523;28;20033;-81
2020/12/16 07:29:23;;;;;;;41.60;15.73;;;8.80;99.90;;;;;;5028860;28;20033;-79
2020/12/16 07:32:03;;;;;;;34.90;15.52;;;8.80;99.90;;;;;;5030031;28;20529;-80
2020/12/16 07:34:32;;;;;;;25.85;12.98;;;8.80;99.90;;;;;;5027475;28;20037;-79
2020/12/16 07:37:02;;;;;;;30.23;13.98;;;8.80;99.90;;;;;;5029575;28;20025;-79
2020/12/16 07:39:31;;;;;;;30.55;15.20;;;8.80;99.90;;;;;;5018561;28;20021;-79
2020/12/16 07:42:00;;;;;;;32.22;15.88;;;8.80;99.90;;;;;;5027414;28;20367;-80
2020/12/16 07:44:26;;;;;;;29.60;14.15;;;8.80;99.90;;;;;;5025854;28;20079;-79
2020/12/16 07:46:54;;;;;;;30.95;15.85;;;8.90;99.90;;;;;;5023866;28;20025;-79
2020/12/16 07:49:20;;;;;;;42.05;22.55;;;8.90;99.90;;;;;;5023085;28;20021;-80
2020/12/16 07:52:01;;;;;;;33.15;15.57;;;8.90;99.90;;;;;;5026089;28;20025;-80
2020/12/16 07:54:40;;;;;;;27.52;13.55;;;8.90;99.90;;;;;;5039701;28;20167;-80
2020/12/16 07:57:08;;;;;;;30.63;14.43;;;8.90;99.90;;;;;;5024960;28;20093;-79
2020/12/16 07:59:35;;;;;;;30.35;14.43;;;8.90;99.90;;;;;;5023995;28;20033;-79
2020/12/16 08:02:19;;;;;;;30.95;16.08;;;9.00;99.90;;;;;;5014326;28;20108;-79
2020/12/16 08:04:55;;;;;;;25.75;14.73;;;9.00;99.90;;;;;;5025807;28;20032;-79
2020/12/16 08:07:21;;;;;;;37.50;17.92;;;9.00;99.90;;;;;;5025836;28;20017;-79
2020/12/16 08:10:06;;;;;;;29.63;16.08;;;9.00;99.90;;;;;;5022936;28;20208;-79
2020/12/16 08:12:40;;;;;;;27.70;15.30;;;9.00;99.90;;;;;;5043035;28;20092;-80
2020/12/16 08:15:18;;;;;;;30.42;16.42;;;9.00;99.90;;;;;;5027799;28;20045;-79
2020/12/16 08:17:51;;;;;;;31.02;16.20;;;9.10;99.90;;;;;;5047791;28;20115;-78
2020/12/16 08:20:22;;;;;;;26.70;14.77;;;9.10;99.90;;;;;;5042624;28;20048;-80
2020/12/16 08:22:58;;;;;;;28.45;14.10;;;9.10;99.90;;;;;;5020739;28;20025;-78
2020/12/16 08:25:24;;;;;;;27.17;14.65;;;9.10;99.90;;;;;;5027595;28;20056;-79
2020/12/16 08:27:54;;;;;;;24.13;13.57;;;9.20;99.90;;;;;;5017316;28;20431;-79
2020/12/16 08:30:24;;;;;;;30.17;15.40;;;9.20;99.90;;;;;;5029478;28;20040;-80
2020/12/16 08:33:13;;;;;;;28.30;15.15;;;9.20;99.90;;;;;;5013445;28;20040;-79
2020/12/16 08:35:41;;;;;;;25.08;14.43;;;9.30;99.90;;;;;;5000777;28;20044;-79
2020/12/16 08:38:11;;;;;;;27.60;15.23;;;9.30;99.90;;;;;;5026584;28;20036;-80
2020/12/16 08:40:39;;;;;;;27.00;15.40;;;9.30;99.90;;;;;;5026171;28;20036;-80
2020/12/16 08:43:29;;;;;;;23.33;13.65;;;9.30;99.90;;;;;;5027415;28;20845;-79
2020/12/16 08:46:01;;;;;;;25.10;14.85;;;9.40;99.90;;;;;;5031299;28;20032;-79
2020/12/16 08:48:26;;;;;;;30.48;17.45;;;9.40;99.90;;;;;;5028447;28;20133;-79
2020/12/16 08:51:05;;;;;;;23.48;15.27;;;9.40;99.90;;;;;;5024167;28;20501;-79
2020/12/16 08:53:43;;;;;;;28.33;17.00;;;9.40;99.90;;;;;;5025802;28;20036;-80
2020/12/16 08:56:22;;;;;;;33.67;18.50;;;9.40;99.90;;;;;;5029319;28;20018;-80
2020/12/16 08:59:00;;;;;;;32.17;20.55;;;9.40;99.90;;;;;;5034064;28;20038;-79
2020/12/16 09:01:26;;;;;;;30.15;18.63;;;9.40;99.90;;;;;;5028302;28;20093;-80
2020/12/16 09:03:55;;;;;;;30.88;20.45;;;9.40;99.90;;;;;;5027962;28;20496;-79
2020/12/16 09:06:25;;;;;;;31.58;19.23;;;9.50;99.90;;;;;;5027742;28;20040;-79
2020/12/16 09:08:51;;;;;;;28.75;19.42;;;9.40;99.90;;;;;;5025459;28;20033;-78
2020/12/16 09:11:18;;;;;;;27.67;18.45;;;9.50;99.90;;;;;;5030589;28;20029;-74
2020/12/16 09:13:44;;;;;;;29.52;18.80;;;9.50;99.90;;;;;;5026627;28;20505;-74
2020/12/16 09:16:19;;;;;;;28.92;18.85;;;9.50;99.90;;;;;;5024954;28;20026;-74
2020/12/16 09:18:47;;;;;;;37.17;20.42;;;9.50;99.90;;;;;;5026559;28;20661;-74
2020/12/16 09:21:17;;;;;;;29.10;18.83;;;9.50;99.90;;;;;;5029342;28;20490;-74
2020/12/16 09:23:45;;;;;;;28.45;19.10;;;9.50;99.90;;;;;;5027067;28;20040;-75
2020/12/16 09:26:11;;;;;;;33.85;20.98;;;9.50;99.90;;;;;;5029755;28;20024;-74
2020/12/16 09:28:40;;;;;;;33.55;21.60;;;9.50;99.90;;;;;;5025954;28;20040;-74
2020/12/16 09:31:20;;;;;;;36.53;23.33;;;9.50;99.90;;;;;;5013110;28;20120;-75
2020/12/16 09:33:58;;;;;;;30.20;19.80;;;9.50;99.90;;;;;;5025856;28;20499;-75
2020/12/16 09:36:26;;;;;;;30.60;19.85;;;9.50;99.90;;;;;;5025138;28;20061;-76
2020/12/16 09:38:56;;;;;;;32.85;20.23;;;9.40;99.90;;;;;;5024874;28;20060;-74
2020/12/16 09:41:22;;;;;;;32.20;20.27;;;9.40;99.90;;;;;;5027158;28;20064;-72
2020/12/16 09:43:48;;;;;;;29.83;19.27;;;9.40;99.90;;;;;;5031382;28;20427;-74
2020/12/16 09:46:20;;;;;;;29.42;20.52;;;9.40;99.90;;;;;;5027967;28;20087;-74
2020/12/16 09:48:46;;;;;;;34.50;20.13;;;9.40;99.90;;;;;;5030444;28;20048;-74
2020/12/16 09:51:21;;;;;;;31.33;19.58;;;9.40;99.90;;;;;;5014785;28;20045;-74
2020/12/16 09:53:49;;;;;;;34.00;20.42;;;9.40;99.90;;;;;;5026826;28;20037;-76
2020/12/16 09:56:24;;;;;;;33.53;19.67;;;9.40;99.90;;;;;;5010642;28;20038;-77
2020/12/16 09:58:50;;;;;;;34.13;19.20;;;9.40;99.90;;;;;;5026943;28;20025;-75
2020/12/16 10:01:18;;;;;;;31.80;19.33;;;9.40;99.90;;;;;;5025573;28;20509;-76
2020/12/16 10:03:49;;;;;;;31.52;20.25;;;9.40;99.90;;;;;;5027145;28;20044;-75
2020/12/16 10:06:18;;;;;;;32.88;20.08;;;9.40;99.90;;;;;;5032018;28;20022;-75
2020/12/16 10:08:46;;;;;;;35.80;21.75;;;9.40;99.90;;;;;;5011823;28;20035;-75
2020/12/16 10:11:14;;;;;;;31.77;18.60;;;9.40;99.90;;;;;;5026714;28;20031;-75
2020/12/16 10:13:42;;;;;;;31.65;19.52;;;9.40;99.90;;;;;;5027879;28;20029;-74
2020/12/16 10:16:10;;;;;;;36.25;22.85;;;9.40;99.90;;;;;;5014124;28;20406;-78
2020/12/16 10:18:36;;;;;;;34.17;20.63;;;9.40;99.90;;;;;;5041959;28;20029;-74
2020/12/16 10:21:05;;;;;;;40.95;23.10;;;9.40;99.90;;;;;;5025730;28;20026;-72
2020/12/16 10:23:33;;;;;;;35.75;22.48;;;9.30;99.90;;;;;;5024090;28;20533;-73
2020/12/16 10:25:59;;;;;;;35.53;21.88;;;9.40;99.90;;;;;;5024784;28;20021;-74
2020/12/16 10:28:27;;;;;;;30.85;19.98;;;9.40;99.90;;;;;;5025842;28;20024;-74
2020/12/16 10:30:55;;;;;;;29.55;19.70;;;9.30;99.90;;;;;;5027626;28;20040;-73
2020/12/16 10:33:23;;;;;;;33.83;21.73;;;9.30;99.90;;;;;;5015929;28;20454;-73
2020/12/16 10:35:48;;;;;;;34.83;23.65;;;9.40;99.90;;;;;;5029566;28;20116;-73
2020/12/16 10:38:14;;;;;;;34.03;22.35;;;9.30;99.90;;;;;;5041163;28;20466;-73
2020/12/16 10:40:42;;;;;;;29.67;19.85;;;9.30;99.90;;;;;;5028494;28;20060;-73
2020/12/16 10:43:15;;;;;;;33.67;20.77;;;9.30;99.90;;;;;;5025060;28;20379;-73
2020/12/16 10:45:43;;;;;;;33.80;21.52;;;9.30;99.90;;;;;;5026142;28;20276;-74
2020/12/16 10:48:09;;;;;;;31.27;19.92;;;9.30;99.90;;;;;;5024898;28;20108;-74
2020/12/16 10:50:34;;;;;;;33.38;20.55;;;9.30;99.90;;;;;;5024436;28;20716;-73
2020/12/16 10:53:04;;;;;;;31.75;20.60;;;9.40;99.90;;;;;;5025753;28;20040;-73
2020/12/16 10:55:30;;;;;;;30.40;19.33;;;9.30;99.90;;;;;;5033354;28;20112;-73
2020/12/16 10:57:58;;;;;;;31.70;19.23;;;9.30;99.90;;;;;;5026063;28;20136;-73
2020/12/16 11:00:28;;;;;;;35.10;21.48;;;9.40;99.90;;;;;;5021865;28;20567;-74
2020/12/16 11:02:54;;;;;;;32.28;20.35;;;9.40;99.90;;;;;;5008271;28;20121;-73
2020/12/16 11:05:24;;;;;;;35.95;21.13;;;9.40;99.90;;;;;;5027249;28;20128;-74
2020/12/16 11:07:54;;;;;;;35.42;21.70;;;9.40;99.90;;;;;;5027195;28;20094;-73
2020/12/16 11:10:20;;;;;;;43.13;24.52;;;9.40;99.90;;;;;;5026713;28;20033;-74
2020/12/16 11:12:48;;;;;;;36.10;22.05;;;9.40;99.90;;;;;;5023248;28;20033;-73
2020/12/16 11:15:16;;;;;;;32.78;20.77;;;9.40;99.90;;;;;;5026193;28;20356;-73
2020/12/16 11:17:43;;;;;;;36.30;21.33;;;9.40;99.90;;;;;;5027520;28;20518;-73
2020/12/16 11:20:10;;;;;;;35.22;21.38;;;9.50;99.90;;;;;;5026314;28;20037;-73
2020/12/16 11:22:40;;;;;;;34.92;22.63;;;9.50;99.90;;;;;;5026476;28;20029;-72
2020/12/16 11:25:05;;;;;;;35.95;22.95;;;9.60;99.90;;;;;;5025360;28;20028;-74
2020/12/16 11:27:31;;;;;;;33.38;21.00;;;9.60;99.90;;;;;;5028053;28;20132;-74
2020/12/16 11:29:57;;;;;;;33.55;22.05;;;9.60;99.90;;;;;;5028075;28;20702;-73
2020/12/16 11:32:22;;;;;;;36.15;22.70;;;9.60;99.90;;;;;;5025898;28;20062;-73
2020/12/16 11:34:48;;;;;;;47.88;25.58;;;9.70;99.90;;;;;;5026383;28;20021;-74
2020/12/16 11:37:16;;;;;;;33.10;22.13;;;9.60;99.90;;;;;;5029433;28;20033;-72
2020/12/16 11:39:46;;;;;;;45.65;24.67;;;9.70;99.90;;;;;;5027529;28;20467;-73
2020/12/16 11:42:12;;;;;;;36.67;23.42;;;9.70;99.90;;;;;;5028014;28;20072;-73
2020/12/16 11:44:38;;;;;;;35.67;24.05;;;9.70;99.90;;;;;;5027258;28;20033;-72
2020/12/16 11:47:09;;;;;;;42.65;25.05;;;9.80;99.90;;;;;;5027118;28;20024;-73
2020/12/16 11:49:34;;;;;;;42.28;25.35;;;9.80;99.90;;;;;;5029660;28;20029;-72
2020/12/16 11:52:00;;;;;;;32.80;22.25;;;9.80;99.90;;;;;;5025417;28;20029;-73
2020/12/16 11:54:28;;;;;;;35.97;23.48;;;9.80;99.90;;;;;;5025488;28;20032;-78
2020/12/16 11:56:56;;;;;;;35.70;24.52;;;9.80;99.90;;;;;;5027062;28;20037;-76
2020/12/16 11:59:24;;;;;;;36.00;22.55;;;9.80;99.90;;;;;;5021103;28;20029;-77
2020/12/16 12:01:58;;;;;;;33.70;21.95;;;9.80;99.90;;;;;;5024465;28;20052;-77
2020/12/16 12:04:24;;;;;;;34.80;23.40;;;9.80;99.90;;;;;;5028196;28;20025;-76
2020/12/16 12:06:50;;;;;;;36.88;23.75;;;9.80;99.90;;;;;;5012937;28;20802;-76
2020/12/16 12:09:19;;;;;;;34.67;23.85;;;9.80;99.90;;;;;;5026407;28;20030;-76
2020/12/16 12:11:45;;;;;;;34.80;23.08;;;9.90;99.90;;;;;;5029344;28;20030;-76
2020/12/16 12:14:10;;;;;;;35.42;23.75;;;9.80;99.90;;;;;;5025894;28;20088;-77
2020/12/16 12:16:38;;;;;;;37.30;24.30;;;9.90;99.90;;;;;;5007570;28;20033;-79
2020/12/16 12:19:06;;;;;;;36.45;24.50;;;9.90;99.90;;;;;;5026605;28;20044;-78
2020/12/16 12:21:34;;;;;;;32.95;23.52;;;9.90;99.90;;;;;;5026469;28;20033;-76
2020/12/16 12:24:00;;;;;;;32.17;21.70;;;9.90;99.90;;;;;;4331412;28;10000773;-75
2020/12/16 12:26:30;;;;;;;33.47;22.80;;;9.90;99.90;;;;;;5024292;28;20026;-76
2020/12/16 12:28:58;;;;;;;31.58;21.13;;;9.90;99.90;;;;;;5028408;28;20025;-75
2020/12/16 12:31:26;;;;;;;35.45;24.27;;;10.00;99.90;;;;;;5026595;28;20026;-75
2020/12/16 12:33:53;;;;;;;37.08;24.88;;;10.00;99.90;;;;;;5019104;28;20092;-77
2020/12/16 12:36:19;;;;;;;33.38;23.25;;;10.00;99.90;;;;;;5019331;28;20091;-77
2020/12/16 12:38:47;;;;;;;36.13;24.67;;;10.00;99.90;;;;;;5023483;28;20034;-76
2020/12/16 12:41:14;;;;;;;34.38;24.73;;;10.10;99.90;;;;;;5025820;28;20052;-76
2020/12/16 12:43:40;;;;;;;36.08;23.48;;;10.10;99.90;;;;;;5021936;28;20025;-76
2020/12/16 12:46:07;;;;;;;34.45;23.05;;;10.00;99.90;;;;;;5023056;28;20032;-77
2020/12/16 12:48:35;;;;;;;32.67;22.55;;;10.00;99.90;;;;;;5025841;28;20121;-77
2020/12/16 12:51:05;;;;;;;33.28;22.63;;;10.00;99.90;;;;;;5007984;28;20137;-77
2020/12/16 12:53:33;;;;;;;36.95;24.55;;;10.10;99.90;;;;;;5023593;28;20044;-77